sensor_id;sensor_type;location;lat;lon;timestamp;pressure;altitude;pressure_sealevel;temperature;humidity
8894;BME280;4483;48.622;9.230;2023-04-12T00:00:46;97414.75;;;8.74;78.90
8894;BME280;4483;48.622;9.230;2023-04-12T00:03:15;97414.03;;;8.70;79.34
8894;BME280;4483;48.622;9.230;2023-04-12T00:05:44;97416.59;;;8.70;79.98
8894;BME280;4483;48.622;9.230;2023-04-12T00:08:11;97418.28;;;8.71;80.01
8894;BME280;4483;48.622;9.230;2023-04-12T00:10:38;97410.59;;;8.71;80.00
8894;BME280;4483;48.622;9.230;2023-04-12T00:13:05;97404.53;;;8.72;80.30
8894;BME280;4483;48.622;9.230;2023-04-12T00:15:33;97405.50;;;8.70;80.28
8894;BME280;4483;48.622;9.230;2023-04-12T00:18:00;97402.09;;;8.69;80.27
8894;BME280;4483;48.622;9.230;2023-04-12T00:20:27;97396.06;;;8.70;80.42
8894;BME280;4483;48.622;9.230;2023-04-12T00:22:53;97401.25;;;8.69;80.96
8894;BME280;4483;48.622;9.230;2023-04-12T00:25:21;97396.06;;;8.70;81.25
8894;BME280;4483;48.622;9.230;2023-04-12T00:27:48;97394.28;;;8.72;81.21
8894;BME280;4483;48.622;9.230;2023-04-12T00:30:15;97397.63;;;8.74;81.68
8894;BME280;4483;48.622;9.230;2023-04-12T00:32:43;97381.28;;;8.75;81.91
8894;BME280;4483;48.622;9.230;2023-04-12T00:35:10;97386.41;;;8.77;82.48
8894;BME280;4483;48.622;9.230;2023-04-12T00:37:36;97381.25;;;8.77;82.02
8894;BME280;4483;48.622;9.230;2023-04-12T00:40:04;97380.28;;;8.79;82.65
8894;BME280;4483;48.622;9.230;2023-04-12T00:42:32;97384.53;;;8.80;83.00
8894;BME280;4483;48.622;9.230;2023-04-12T00:44:59;97372.56;;;8.79;83.01
8894;BME280;4483;48.622;9.230;2023-04-12T00:47:26;97378.56;;;8.80;83.43
8894;BME280;4483;48.622;9.230;2023-04-12T00:49:55;97368.34;;;8.78;83.60
8894;BME280;4483;48.622;9.230;2023-04-12T00:52:22;97369.38;;;8.74;83.70
8894;BME280;4483;48.622;9.230;2023-04-12T00:54:48;97370.28;;;8.73;84.62
8894;BME280;4483;48.622;9.230;2023-04-12T00:57:16;97369.50;;;8.71;84.73
8894;BME280;4483;48.622;9.230;2023-04-12T00:59:42;97358.38;;;8.71;85.53
8894;BME280;4483;48.622;9.230;2023-04-12T01:02:09;97353.19;;;8.72;86.14
8894;BME280;4483;48.622;9.230;2023-04-12T01:04:36;97356.66;;;8.71;86.27
8894;BME280;4483;48.622;9.230;2023-04-12T01:07:13;97353.94;;;8.74;87.01
8894;BME280;4483;48.622;9.230;2023-04-12T01:09:49;97346.19;;;8.76;87.48
8894;BME280;4483;48.622;9.230;2023-04-12T01:12:26;97346.97;;;8.78;87.83
8894;BME280;4483;48.622;9.230;2023-04-12T01:15:04;97339.25;;;8.78;88.12
8894;BME280;4483;48.622;9.230;2023-04-12T01:17:37;97349.53;;;8.78;88.76
8894;BME280;4483;48.622;9.230;2023-04-12T01:20:06;97339.31;;;8.76;88.56
8894;BME280;4483;48.622;9.230;2023-04-12T01:22:53;97339.31;;;8.76;89.35
8894;BME280;4483;48.622;9.230;2023-04-12T01:25:36;97330.84;;;8.74;89.71
8894;BME280;4483;48.622;9.230;2023-04-12T01:28:06;97327.44;;;8.74;90.62
8894;BME280;4483;48.622;9.230;2023-04-12T01:30:35;97330.84;;;8.74;91.06
8894;BME280;4483;48.622;9.230;2023-04-12T01:33:04;97327.56;;;8.71;91.70
8894;BME280;4483;48.622;9.230;2023-04-12T01:35:32;97316.38;;;8.72;91.85
8894;BME280;4483;48.622;9.230;2023-04-12T01:37:59;97324.16;;;8.70;92.13
8894;BME280;4483;48.622;9.230;2023-04-12T01:40:28;97320.81;;;8.68;92.79
8894;BME280;4483;48.622;9.230;2023-04-12T01:43:03;97310.59;;;8.67;93.41
8894;BME280;4483;48.622;9.230;2023-04-12T01:45:31;97307.19;;;8.66;93.59
8894;BME280;4483;48.622;9.230;2023-04-12T01:47:58;97299.50;;;8.66;94.12
8894;BME280;4483;48.622;9.230;2023-04-12T01:50:31;97290.13;;;8.65;94.41
8894;BME280;4483;48.622;9.230;2023-04-12T01:53:02;97292.78;;;8.64;94.51
8894;BME280;4483;48.622;9.230;2023-04-12T01:55:34;97285.06;;;8.64;95.14
8894;BME280;4483;48.622;9.230;2023-04-12T01:58:04;97285.13;;;8.62;95.17
8894;BME280;4483;48.622;9.230;2023-04-12T02:00:34;97280.94;;;8.60;95.74
8894;BME280;4483;48.622;9.230;2023-04-12T02:03:03;97281.88;;;8.59;96.09
8894;BME280;4483;48.622;9.230;2023-04-12T02:05:30;97274.09;;;8.60;96.86
8894;BME280;4483;48.622;9.230;2023-04-12T02:07:57;97275.69;;;8.63;96.53
8894;BME280;4483;48.622;9.230;2023-04-12T02:10:27;97273.06;;;8.64;96.86
8894;BME280;4483;48.622;9.230;2023-04-12T02:12:57;97264.47;;;8.65;97.81
8894;BME280;4483;48.622;9.230;2023-04-12T02:15:24;97259.41;;;8.64;98.00
8894;BME280;4483;48.622;9.230;2023-04-12T02:17:52;97257.66;;;8.64;97.89
8894;BME280;4483;48.622;9.230;2023-04-12T02:20:19;97245.72;;;8.63;98.19
8894;BME280;4483;48.622;9.230;2023-04-12T02:22:46;97245.84;;;8.60;99.32
8894;BME280;4483;48.622;9.230;2023-04-12T02:25:14;97245.97;;;8.57;99.18
8894;BME280;4483;48.622;9.230;2023-04-12T02:27:42;97236.66;;;8.55;98.88
8894;BME280;4483;48.622;9.230;2023-04-12T02:30:09;97237.47;;;8.55;99.42
8894;BME280;4483;48.622;9.230;2023-04-12T02:32:36;97226.41;;;8.55;99.54
8894;BME280;4483;48.622;9.230;2023-04-12T02:35:10;97217.00;;;8.54;100.00
8894;BME280;4483;48.622;9.230;2023-04-12T02:37:37;97219.50;;;8.55;100.00
8894;BME280;4483;48.622;9.230;2023-04-12T02:40:05;97218.69;;;8.55;100.00
8894;BME280;4483;48.622;9.230;2023-04-12T02:42:34;97211.69;;;8.58;100.00
8894;BME280;4483;48.622;9.230;2023-04-12T02:45:01;97208.22;;;8.59;100.00
8894;BME280;4483;48.622;9.230;2023-04-12T02:47:28;97198.88;;;8.58;100.00
8894;BME280;4483;48.622;9.230;2023-04-12T02:49:55;97197.13;;;8.59;100.00
8894;BME280;4483;48.622;9.230;2023-04-12T02:52:23;97184.34;;;8.57;100.00
8894;BME280;4483;48.622;9.230;2023-04-12T02:54:50;97177.56;;;8.56;100.00
8894;BME280;4483;48.622;9.230;2023-04-12T02:57:17;97175.88;;;8.55;100.00
8894;BME280;4483;48.622;9.230;2023-04-12T02:59:46;97171.66;;;8.54;100.00
8894;BME280;4483;48.622;9.230;2023-04-12T03:02:13;97161.38;;;8.54;100.00
8894;BME280;4483;48.622;9.230;2023-04-12T03:04:39;97153.75;;;8.53;100.00
8894;BME280;4483;48.622;9.230;2023-04-12T03:07:06;97156.38;;;8.51;100.00
8894;BME280;4483;48.622;9.230;2023-04-12T03:09:34;97151.25;;;8.51;100.00
8894;BME280;4483;48.622;9.230;2023-04-12T03:12:03;97148.78;;;8.48;100.00
8894;BME280;4483;48.622;9.230;2023-04-12T03:14:30;97136.88;;;8.47;100.00
8894;BME280;4483;48.622;9.230;2023-04-12T03:16:56;97132.63;;;8.46;100.00
8894;BME280;4483;48.622;9.230;2023-04-12T03:19:23;97129.28;;;8.44;100.00
8894;BME280;4483;48.622;9.230;2023-04-12T03:21:49;97130.19;;;8.43;100.00
8894;BME280;4483;48.622;9.230;2023-04-12T03:24:16;97126.88;;;8.41;100.00
8894;BME280;4483;48.622;9.230;2023-04-12T03:26:44;97123.53;;;8.39;100.00
8894;BME280;4483;48.622;9.230;2023-04-12T03:29:11;97118.41;;;8.39;100.00
8894;BME280;4483;48.622;9.230;2023-04-12T03:31:38;97113.25;;;8.39;100.00
8894;BME280;4483;48.622;9.230;2023-04-12T03:34:04;97102.22;;;8.37;100.00
8894;BME280;4483;48.622;9.230;2023-04-12T03:36:32;97109.13;;;8.37;100.00
8894;BME280;4483;48.622;9.230;2023-04-12T03:38:59;97098.00;;;8.36;100.00
8894;BME280;4483;48.622;9.230;2023-04-12T03:41:27;97111.69;;;8.37;100.00
8894;BME280;4483;48.622;9.230;2023-04-12T03:43:55;97097.09;;;8.37;100.00
8894;BME280;4483;48.622;9.230;2023-04-12T03:46:21;97092.81;;;8.38;100.00
8894;BME280;4483;48.622;9.230;2023-04-12T03:48:48;97094.53;;;8.37;100.00
8894;BME280;4483;48.622;9.230;2023-04-12T03:51:16;97085.09;;;8.38;100.00
8894;BME280;4483;48.622;9.230;2023-04-12T03:53:46;97084.22;;;8.39;100.00
8894;BME280;4483;48.622;9.230;2023-04-12T03:56:13;97080.81;;;8.38;100.00
8894;BME280;4483;48.622;9.230;2023-04-12T03:58:39;97081.66;;;8.39;100.00
8894;BME280;4483;48.622;9.230;2023-04-12T04:01:08;97072.28;;;8.38;100.00
8894;BME280;4483;48.622;9.230;2023-04-12T04:03:34;97065.41;;;8.38;100.00
8894;BME280;4483;48.622;9.230;2023-04-12T04:06:01;97061.94;;;8.39;100.00
8894;BME280;4483;48.622;9.230;2023-04-12T04:08:28;97058.59;;;8.37;100.00
8894;BME280;4483;48.622;9.230;2023-04-12T04:10:56;97058.47;;;8.40;100.00
8894;BME280;4483;48.622;9.230;2023-04-12T04:13:23;97052.50;;;8.40;100.00
8894;BME280;4483;48.622;9.230;2023-04-12T04:15:55;97045.00;;;8.35;100.00
8894;BME280;4483;48.622;9.230;2023-04-12T04:18:25;97046.53;;;8.39;100.00
8894;BME280;4483;48.622;9.230;2023-04-12T04:20:52;97043.09;;;8.40;100.00
8894;BME280;4483;48.622;9.230;2023-04-12T04:23:19;97036.25;;;8.39;100.00
8894;BME280;4483;48.622;9.230;2023-04-12T04:25:46;97037.25;;;8.37;100.00
8894;BME280;4483;48.622;9.230;2023-04-12T04:28:13;97025.31;;;8.36;100.00
8894;BME280;4483;48.622;9.230;2023-04-12T04:30:40;97014.34;;;8.32;100.00
8894;BME280;4483;48.622;9.230;2023-04-12T04:33:10;97019.47;;;8.32;100.00
8894;BME280;4483;48.622;9.230;2023-04-12T04:35:39;97005.13;;;8.28;100.00
8894;BME280;4483;48.622;9.230;2023-04-12T04:38:06;97015.25;;;8.31;100.00
8894;BME280;4483;48.622;9.230;2023-04-12T04:40:35;97011.72;;;8.34;100.00
8894;BME280;4483;48.622;9.230;2023-04-12T04:43:02;97008.25;;;8.35;100.00
8894;BME280;4483;48.622;9.230;2023-04-12T04:45:29;97008.94;;;8.38;100.00
8894;BME280;4483;48.622;9.230;2023-04-12T04:47:56;97011.50;;;8.38;100.00
8894;BME280;4483;48.622;9.230;2023-04-12T04:50:24;97007.16;;;8.40;100.00
8894;BME280;4483;48.622;9.230;2023-04-12T04:52:53;97005.19;;;8.45;100.00
8894;BME280;4483;48.622;9.230;2023-04-12T04:55:20;97001.72;;;8.46;100.00
8894;BME280;4483;48.622;9.230;2023-04-12T04:57:49;96997.34;;;8.48;100.00
8894;BME280;4483;48.622;9.230;2023-04-12T05:00:16;96992.22;;;8.48;100.00
8894;BME280;4483;48.622;9.230;2023-04-12T05:02:45;96998.25;;;8.47;100.00
8894;BME280;4483;48.622;9.230;2023-04-12T05:05:12;96998.34;;;8.46;100.00
8894;BME280;4483;48.622;9.230;2023-04-12T05:07:40;96999.22;;;8.45;100.00
8894;BME280;4483;48.622;9.230;2023-04-12T05:10:10;96996.59;;;8.46;100.00
8894;BME280;4483;48.622;9.230;2023-04-12T05:12:36;96994.25;;;8.42;100.00
8894;BME280;4483;48.622;9.230;2023-04-12T05:15:04;96999.91;;;8.48;100.00
8894;BME280;4483;48.622;9.230;2023-04-12T05:17:31;96995.53;;;8.50;100.00
8894;BME280;4483;48.622;9.230;2023-04-12T05:19:58;96992.91;;;8.52;100.00
8894;BME280;4483;48.622;9.230;2023-04-12T05:22:25;96981.88;;;8.50;100.00
8894;BME280;4483;48.622;9.230;2023-04-12T05:24:54;96978.63;;;8.46;100.00
8894;BME280;4483;48.622;9.230;2023-04-12T05:27:22;96979.38;;;8.48;100.00
8894;BME280;4483;48.622;9.230;2023-04-12T05:29:49;96988.84;;;8.48;100.00
8894;BME280;4483;48.622;9.230;2023-04-12T05:32:16;96978.50;;;8.49;100.00
8894;BME280;4483;48.622;9.230;2023-04-12T05:34:42;96985.34;;;8.49;100.00
8894;BME280;4483;48.622;9.230;2023-04-12T05:37:09;96972.44;;;8.50;100.00
8894;BME280;4483;48.622;9.230;2023-04-12T05:39:35;96978.41;;;8.51;100.00
8894;BME280;4483;48.622;9.230;2023-04-12T05:42:03;96973.28;;;8.51;100.00
8894;BME280;4483;48.622;9.230;2023-04-12T05:44:33;96969.81;;;8.52;100.00
8894;BME280;4483;48.622;9.230;2023-04-12T05:47:00;96969.69;;;8.55;100.00
8894;BME280;4483;48.622;9.230;2023-04-12T05:49:28;96962.66;;;8.58;100.00
8894;BME280;4483;48.622;9.230;2023-04-12T05:51:54;96960.72;;;8.63;100.00
8894;BME280;4483;48.622;9.230;2023-04-12T05:54:21;96949.47;;;8.66;100.00
8894;BME280;4483;48.622;9.230;2023-04-12T05:56:49;96948.41;;;8.70;100.00
8894;BME280;4483;48.622;9.230;2023-04-12T05:59:16;96940.66;;;8.71;100.00
8894;BME280;4483;48.622;9.230;2023-04-12T06:01:45;96927.72;;;8.73;100.00
8894;BME280;4483;48.622;9.230;2023-04-12T06:04:12;96917.47;;;8.73;100.00
8894;BME280;4483;48.622;9.230;2023-04-12T06:06:39;96913.97;;;8.74;100.00
8894;BME280;4483;48.622;9.230;2023-04-12T06:09:05;96914.06;;;8.72;100.00
8894;BME280;4483;48.622;9.230;2023-04-12T06:11:32;96912.25;;;8.74;100.00
8894;BME280;4483;48.622;9.230;2023-04-12T06:13:59;96913.09;;;8.75;100.00
8894;BME280;4483;48.622;9.230;2023-04-12T06:16:26;96908.75;;;8.75;100.00
8894;BME280;4483;48.622;9.230;2023-04-12T06:18:54;96908.72;;;8.77;100.00
8894;BME280;4483;48.622;9.230;2023-04-12T06:21:21;96899.25;;;8.77;100.00
8894;BME280;4483;48.622;9.230;2023-04-12T06:23:48;96885.59;;;8.77;100.00
8894;BME280;4483;48.622;9.230;2023-04-12T06:26:15;96878.69;;;8.77;100.00
8894;BME280;4483;48.622;9.230;2023-04-12T06:28:43;96882.19;;;8.76;100.00
8894;BME280;4483;48.622;9.230;2023-04-12T06:31:09;96869.28;;;8.78;100.00
8894;BME280;4483;48.622;9.230;2023-04-12T06:33:36;96869.19;;;8.79;100.00
8894;BME280;4483;48.622;9.230;2023-04-12T06:36:06;96869.06;;;8.82;100.00
8894;BME280;4483;48.622;9.230;2023-04-12T06:38:33;96866.34;;;8.85;100.00
8894;BME280;4483;48.622;9.230;2023-04-12T06:41:00;96859.31;;;8.89;100.00
8894;BME280;4483;48.622;9.230;2023-04-12T06:43:26;96850.63;;;8.91;100.00
8894;BME280;4483;48.622;9.230;2023-04-12T06:45:53;96847.81;;;8.96;100.00
8894;BME280;4483;48.622;9.230;2023-04-12T06:48:21;96843.28;;;9.01;100.00
8894;BME280;4483;48.622;9.230;2023-04-12T06:50:48;96831.84;;;9.06;100.00
8894;BME280;4483;48.622;9.230;2023-04-12T06:53:16;96828.97;;;9.12;100.00
8894;BME280;4483;48.622;9.230;2023-04-12T06:55:42;96826.19;;;9.17;100.00
8894;BME280;4483;48.622;9.230;2023-04-12T06:58:09;96826.94;;;9.19;100.00
8894;BME280;4483;48.622;9.230;2023-04-12T07:00:35;96823.38;;;9.22;100.00
8894;BME280;4483;48.622;9.230;2023-04-12T07:03:02;96825.72;;;9.26;100.00
8894;BME280;4483;48.622;9.230;2023-04-12T07:05:29;96810.97;;;9.30;100.00
8894;BME280;4483;48.622;9.230;2023-04-12T07:07:56;96807.09;;;9.38;100.00
8894;BME280;4483;48.622;9.230;2023-04-12T07:10:24;96805.19;;;9.42;100.00
8894;BME280;4483;48.622;9.230;2023-04-12T07:12:51;96805.53;;;9.51;100.00
8894;BME280;4483;48.622;9.230;2023-04-12T07:15:17;96795.59;;;9.61;100.00
8894;BME280;4483;48.622;9.230;2023-04-12T07:17:44;96790.16;;;9.67;100.00
8894;BME280;4483;48.622;9.230;2023-04-12T07:20:11;96783.84;;;9.72;100.00
8894;BME280;4483;48.622;9.230;2023-04-12T07:22:37;96783.00;;;9.72;100.00
8894;BME280;4483;48.622;9.230;2023-04-12T07:25:05;96784.50;;;9.76;100.00
8894;BME280;4483;48.622;9.230;2023-04-12T07:27:35;96778.25;;;9.80;100.00
8894;BME280;4483;48.622;9.230;2023-04-12T07:30:02;96766.81;;;9.85;100.00
8894;BME280;4483;48.622;9.230;2023-04-12T07:32:29;96739.16;;;9.89;100.00
8894;BME280;4483;48.622;9.230;2023-04-12T07:34:56;96724.41;;;9.92;100.00
8894;BME280;4483;48.622;9.230;2023-04-12T07:37:22;96718.16;;;9.96;100.00
8894;BME280;4483;48.622;9.230;2023-04-12T07:39:49;96723.06;;;10.01;100.00
8894;BME280;4483;48.622;9.230;2023-04-12T07:42:16;96716.84;;;10.05;100.00
8894;BME280;4483;48.622;9.230;2023-04-12T07:44:44;96720.91;;;10.09;100.00
8894;BME280;4483;48.622;9.230;2023-04-12T07:47:10;96725.72;;;10.15;100.00
8894;BME280;4483;48.622;9.230;2023-04-12T07:49:37;96715.09;;;10.21;100.00
8894;BME280;4483;48.622;9.230;2023-04-12T07:52:05;96700.09;;;10.28;100.00
8894;BME280;4483;48.622;9.230;2023-04-12T07:54:32;96696.09;;;10.38;100.00
8894;BME280;4483;48.622;9.230;2023-04-12T07:56:59;96708.34;;;10.48;100.00
8894;BME280;4483;48.622;9.230;2023-04-12T07:59:26;96702.66;;;10.57;100.00
8894;BME280;4483;48.622;9.230;2023-04-12T08:01:55;96701.22;;;10.67;100.00
8894;BME280;4483;48.622;9.230;2023-04-12T08:04:21;96697.63;;;10.70;100.00
8894;BME280;4483;48.622;9.230;2023-04-12T08:06:48;96688.06;;;10.72;100.00
8894;BME280;4483;48.622;9.230;2023-04-12T08:09:15;96686.75;;;10.79;100.00
8894;BME280;4483;48.622;9.230;2023-04-12T08:11:41;96678.56;;;10.86;100.00
8894;BME280;4483;48.622;9.230;2023-04-12T08:14:08;96669.56;;;10.93;100.00
8894;BME280;4483;48.622;9.230;2023-04-12T08:16:35;96670.88;;;11.00;100.00
8894;BME280;4483;48.622;9.230;2023-04-12T08:19:03;96673.88;;;11.07;100.00
8894;BME280;4483;48.622;9.230;2023-04-12T08:21:30;96678.75;;;11.11;100.00
8894;BME280;4483;48.622;9.230;2023-04-12T08:23:56;96678.47;;;11.16;100.00
8894;BME280;4483;48.622;9.230;2023-04-12T08:26:23;96681.50;;;11.23;100.00
8894;BME280;4483;48.622;9.230;2023-04-12T08:28:50;96691.97;;;11.34;100.00
8894;BME280;4483;48.622;9.230;2023-04-12T08:31:17;96675.88;;;11.44;100.00
8894;BME280;4483;48.622;9.230;2023-04-12T08:33:44;96683.66;;;11.57;100.00
8894;BME280;4483;48.622;9.230;2023-04-12T08:36:12;96666.97;;;11.62;100.00
8894;BME280;4483;48.622;9.230;2023-04-12T08:38:39;96662.47;;;11.66;100.00
8894;BME280;4483;48.622;9.230;2023-04-12T08:41:06;96668.38;;;11.68;100.00
8894;BME280;4483;48.622;9.230;2023-04-12T08:43:33;96669.19;;;11.68;100.00
8894;BME280;4483;48.622;9.230;2023-04-12T08:46:00;96684.09;;;11.77;100.00
8894;BME280;4483;48.622;9.230;2023-04-12T08:48:28;96680.59;;;11.78;100.00
8894;BME280;4483;48.622;9.230;2023-04-12T08:50:55;96679.47;;;11.82;100.00
8894;BME280;4483;48.622;9.230;2023-04-12T08:53:24;96670.50;;;11.88;100.00
8894;BME280;4483;48.622;9.230;2023-04-12T08:55:50;96657.72;;;11.86;100.00
8894;BME280;4483;48.622;9.230;2023-04-12T08:58:18;96658.00;;;11.82;100.00
8894;BME280;4483;48.622;9.230;2023-04-12T09:00:46;96656.88;;;11.86;98.54
8894;BME280;4483;48.622;9.230;2023-04-12T09:03:13;96653.56;;;11.84;97.29
8894;BME280;4483;48.622;9.230;2023-04-12T09:05:39;96646.09;;;11.79;97.75
8894;BME280;4483;48.622;9.230;2023-04-12T09:08:06;96647.03;;;11.78;97.95
8894;BME280;4483;48.622;9.230;2023-04-12T09:10:35;96651.25;;;11.79;97.14
8894;BME280;4483;48.622;9.230;2023-04-12T09:13:02;96656.34;;;11.81;98.12
8894;BME280;4483;48.622;9.230;2023-04-12T09:15:29;96638.19;;;11.82;97.80
8894;BME280;4483;48.622;9.230;2023-04-12T09:18:06;96638.72;;;11.87;97.41
8894;BME280;4483;48.622;9.230;2023-04-12T09:20:34;96636.22;;;11.86;97.72
8894;BME280;4483;48.622;9.230;2023-04-12T09:23:15;96637.72;;;12.02;97.43
8894;BME280;4483;48.622;9.230;2023-04-12T09:25:43;96633.41;;;12.16;97.32
8894;BME280;4483;48.622;9.230;2023-04-12T09:28:24;96632.81;;;12.25;96.90
8894;BME280;4483;48.622;9.230;2023-04-12T09:30:51;96633.44;;;12.28;96.83
8894;BME280;4483;48.622;9.230;2023-04-12T09:33:19;96622.03;;;12.31;97.57
8894;BME280;4483;48.622;9.230;2023-04-12T09:35:46;96625.97;;;12.36;96.16
8894;BME280;4483;48.622;9.230;2023-04-12T09:38:14;96616.38;;;12.38;96.58
8894;BME280;4483;48.622;9.230;2023-04-12T09:40:42;96609.47;;;12.39;96.04
8894;BME280;4483;48.622;9.230;2023-04-12T09:43:09;96607.72;;;12.39;96.73
8894;BME280;4483;48.622;9.230;2023-04-12T09:45:36;96623.50;;;12.47;96.54
8894;BME280;4483;48.622;9.230;2023-04-12T09:48:05;96615.34;;;12.53;96.49
8894;BME280;4483;48.622;9.230;2023-04-12T09:50:32;96615.84;;;12.58;96.73
8894;BME280;4483;48.622;9.230;2023-04-12T09:53:00;96621.66;;;12.74;96.57
8894;BME280;4483;48.622;9.230;2023-04-12T09:55:28;96622.88;;;12.81;97.61
8894;BME280;4483;48.622;9.230;2023-04-12T09:58:00;96613.03;;;12.99;97.52
8894;BME280;4483;48.622;9.230;2023-04-12T10:00:29;96610.44;;;13.11;96.94
8894;BME280;4483;48.622;9.230;2023-04-12T10:02:56;96602.03;;;13.21;96.74
8894;BME280;4483;48.622;9.230;2023-04-12T10:05:23;96592.91;;;13.28;95.33
8894;BME280;4483;48.622;9.230;2023-04-12T10:07:51;96594.41;;;13.43;94.78
8894;BME280;4483;48.622;9.230;2023-04-12T10:10:18;96581.38;;;13.68;93.90
8894;BME280;4483;48.622;9.230;2023-04-12T10:12:47;96581.72;;;13.98;91.97
8894;BME280;4483;48.622;9.230;2023-04-12T10:15:15;96586.22;;;14.18;87.14
8894;BME280;4483;48.622;9.230;2023-04-12T10:17:44;96589.50;;;14.44;87.84
8894;BME280;4483;48.622;9.230;2023-04-12T10:20:11;96598.59;;;14.60;86.98
8894;BME280;4483;48.622;9.230;2023-04-12T10:22:39;96584.69;;;14.61;83.84
8894;BME280;4483;48.622;9.230;2023-04-12T10:25:10;96585.63;;;14.60;81.21
8894;BME280;4483;48.622;9.230;2023-04-12T10:27:39;96575.72;;;14.65;81.72
8894;BME280;4483;48.622;9.230;2023-04-12T10:30:29;96575.84;;;14.64;80.54
8894;BME280;4483;48.622;9.230;2023-04-12T10:33:15;96568.31;;;14.72;79.80
8894;BME280;4483;48.622;9.230;2023-04-12T10:35:59;96563.72;;;14.75;79.79
8894;BME280;4483;48.622;9.230;2023-04-12T10:38:28;96569.63;;;14.77;78.70
8894;BME280;4483;48.622;9.230;2023-04-12T10:41:15;96569.13;;;14.72;78.33
8894;BME280;4483;48.622;9.230;2023-04-12T10:43:43;96566.44;;;14.74;78.06
8894;BME280;4483;48.622;9.230;2023-04-12T10:46:49;96561.72;;;14.79;77.90
8894;BME280;4483;48.622;9.230;2023-04-12T10:49:16;96569.84;;;14.85;77.14
8894;BME280;4483;48.622;9.230;2023-04-12T10:52:10;96562.53;;;15.01;76.38
8894;BME280;4483;48.622;9.230;2023-04-12T10:54:38;96562.59;;;15.11;75.41
8894;BME280;4483;48.622;9.230;2023-04-12T10:57:05;96563.16;;;15.26;74.52
8894;BME280;4483;48.622;9.230;2023-04-12T10:59:51;96555.13;;;15.40;73.78
8894;BME280;4483;48.622;9.230;2023-04-12T11:02:21;96543.09;;;15.50;71.20
8894;BME280;4483;48.622;9.230;2023-04-12T11:05:12;96543.25;;;15.69;70.78
8894;BME280;4483;48.622;9.230;2023-04-12T11:07:43;96538.13;;;15.99;70.44
8894;BME280;4483;48.622;9.230;2023-04-12T11:10:14;96546.06;;;16.18;68.09
8894;BME280;4483;48.622;9.230;2023-04-12T11:12:47;96532.50;;;16.15;68.13
8894;BME280;4483;48.622;9.230;2023-04-12T11:15:14;96525.78;;;15.91;66.92
8894;BME280;4483;48.622;9.230;2023-04-12T11:17:52;96538.41;;;15.96;67.50
8894;BME280;4483;48.622;9.230;2023-04-12T11:20:19;96526.88;;;15.89;67.00
8894;BME280;4483;48.622;9.230;2023-04-12T11:22:46;96516.41;;;15.79;66.45
8894;BME280;4483;48.622;9.230;2023-04-12T11:25:15;96522.56;;;15.78;66.98
8894;BME280;4483;48.622;9.230;2023-04-12T11:27:48;96504.13;;;15.81;67.49
8894;BME280;4483;48.622;9.230;2023-04-12T11:30:15;96509.06;;;15.84;67.25
8894;BME280;4483;48.622;9.230;2023-04-12T11:32:43;96504.25;;;15.80;67.52
8894;BME280;4483;48.622;9.230;2023-04-12T11:35:10;96507.91;;;15.77;67.31
8894;BME280;4483;48.622;9.230;2023-04-12T11:37:39;96487.72;;;15.81;67.77
8894;BME280;4483;48.622;9.230;2023-04-12T11:40:08;96495.13;;;15.85;67.53
8894;BME280;4483;48.622;9.230;2023-04-12T11:42:35;96488.97;;;15.86;67.23
8894;BME280;4483;48.622;9.230;2023-04-12T11:45:05;96485.50;;;15.76;66.34
8894;BME280;4483;48.622;9.230;2023-04-12T11:47:32;96488.53;;;15.81;66.78
8894;BME280;4483;48.622;9.230;2023-04-12T11:50:00;96483.66;;;15.88;66.93
8894;BME280;4483;48.622;9.230;2023-04-12T11:52:28;96487.91;;;15.89;66.35
8894;BME280;4483;48.622;9.230;2023-04-12T11:54:55;96483.78;;;15.86;66.85
8894;BME280;4483;48.622;9.230;2023-04-12T11:57:23;96509.31;;;15.81;66.47
8894;BME280;4483;48.622;9.230;2023-04-12T11:59:50;96487.97;;;15.78;66.79
8894;BME280;4483;48.622;9.230;2023-04-12T12:02:17;96489.16;;;15.74;66.30
8894;BME280;4483;48.622;9.230;2023-04-12T12:04:45;96493.59;;;15.62;66.22
8894;BME280;4483;48.622;9.230;2023-04-12T12:07:15;96482.63;;;15.59;67.39
8894;BME280;4483;48.622;9.230;2023-04-12T12:09:43;96473.00;;;15.50;67.29
8894;BME280;4483;48.622;9.230;2023-04-12T12:12:10;96470.94;;;15.44;67.54
8894;BME280;4483;48.622;9.230;2023-04-12T12:14:37;96467.69;;;15.40;68.58
8894;BME280;4483;48.622;9.230;2023-04-12T12:17:09;96464.06;;;15.43;69.23
8894;BME280;4483;48.622;9.230;2023-04-12T12:19:37;96450.84;;;15.46;69.17
8894;BME280;4483;48.622;9.230;2023-04-12T12:22:16;96459.78;;;15.53;68.76
8894;BME280;4483;48.622;9.230;2023-04-12T12:24:45;96463.47;;;15.71;69.31
8894;BME280;4483;48.622;9.230;2023-04-12T12:27:12;96466.16;;;15.90;68.95
8894;BME280;4483;48.622;9.230;2023-04-12T12:29:39;96459.44;;;16.08;68.63
8894;BME280;4483;48.622;9.230;2023-04-12T12:32:10;96451.03;;;16.25;68.14
8894;BME280;4483;48.622;9.230;2023-04-12T12:34:39;96451.38;;;16.41;67.41
8894;BME280;4483;48.622;9.230;2023-04-12T12:37:12;96440.25;;;16.60;67.43
8894;BME280;4483;48.622;9.230;2023-04-12T12:39:58;96434.28;;;16.78;65.37
8894;BME280;4483;48.622;9.230;2023-04-12T12:42:25;96435.38;;;16.76;64.90
8894;BME280;4483;48.622;9.230;2023-04-12T12:44:52;96437.03;;;16.77;65.11
8894;BME280;4483;48.622;9.230;2023-04-12T12:47:18;96426.88;;;16.74;64.40
8894;BME280;4483;48.622;9.230;2023-04-12T12:49:45;96430.41;;;16.63;64.71
8894;BME280;4483;48.622;9.230;2023-04-12T12:52:11;96434.50;;;16.56;64.94
8894;BME280;4483;48.622;9.230;2023-04-12T12:54:39;96445.69;;;16.47;65.40
8894;BME280;4483;48.622;9.230;2023-04-12T12:57:06;96431.78;;;16.37;65.51
8894;BME280;4483;48.622;9.230;2023-04-12T12:59:33;96425.09;;;16.35;65.61
8894;BME280;4483;48.622;9.230;2023-04-12T13:02:00;96423.34;;;16.35;65.12
8894;BME280;4483;48.622;9.230;2023-04-12T13:04:27;96419.06;;;16.34;64.46
8894;BME280;4483;48.622;9.230;2023-04-12T13:06:54;96425.25;;;16.43;64.01
8894;BME280;4483;48.622;9.230;2023-04-12T13:09:20;96417.09;;;16.47;63.86
8894;BME280;4483;48.622;9.230;2023-04-12T13:11:48;96424.91;;;16.47;63.70
8894;BME280;4483;48.622;9.230;2023-04-12T13:14:15;96400.22;;;16.42;63.44
8894;BME280;4483;48.622;9.230;2023-04-12T13:16:42;96394.47;;;16.38;63.64
8894;BME280;4483;48.622;9.230;2023-04-12T13:19:10;96384.34;;;16.35;63.75
8894;BME280;4483;48.622;9.230;2023-04-12T13:21:37;96405.78;;;16.28;63.66
8894;BME280;4483;48.622;9.230;2023-04-12T13:24:04;96404.78;;;16.19;63.86
8894;BME280;4483;48.622;9.230;2023-04-12T13:26:31;96402.72;;;16.13;63.51
8894;BME280;4483;48.622;9.230;2023-04-12T13:28:59;96391.19;;;16.06;63.30